Terminal Aerodrome Forecast
Issued by NWS Detroit/Pontiac, MI

Home | Current Version | Previous Version | Text Only | Print | Product List | Glossary On
Versions: 1 2 3 4 5 6 7 8 9 10 11 12 13 14 15 16 17 18 19 20 21
000
FTUS43 KDTX 012012 AAB
TAFDTW
TAF AMD
KDTW 012012Z 0120/0224 23006KT 6SM -SN BKN035 OVC060
      TEMPO 0120/0121 3SM -SN BKN028 OVC045
     FM012300 24006KT P6SM SCT035 OVC100
     FM020500 26013G21KT P6SM BKN025
     FM021400 28010KT P6SM SCT035
     FM021900 26006KT P6SM SCT250=

USA.gov is the U.S. government's official web portal to all federal, state and local government web resources and services.